Time;durP1;ratioP1;P1;durP2;ratioP2;P2;SDS_P1;SDS_P2;PMS_P1;PMS_P2;Temp;Humidity;BMP_temperature;BMP_pressure;BME280_temperature;BME280_humidity;BME280_pressure;Samples;Min_cycle;Max_cycle;Signal;HPM_P1;HPM_P2
2021/07/04 07:11:09;;;;;;;;;4.00;4.00;;;;;19.66;69.05;100792.06;5047368;23;46715;-83
2021/07/04 07:13:35;;;;;;;;;3.00;3.00;;;;;19.67;69.07;100793.84;4877665;29;46166;-83
2021/07/04 07:16:00;;;;;;;;;4.00;4.00;;;;;19.68;69.63;100795.56;4866585;29;45442;-87
2021/07/04 07:18:26;;;;;;;;;4.33;3.00;;;;;19.62;69.35;100774.38;4879960;29;46626;-82
2021/07/04 07:20:51;;;;;;;;;3.67;3.67;;;;;19.71;69.46;100798.19;4866006;29;45450;-86
2021/07/04 07:23:16;;;;;;;;;3.33;3.33;;;;;19.73;69.23;100792.81;4866339;29;45862;-85
2021/07/04 07:25:42;;;;;;;;;2.33;2.33;;;;;19.74;69.25;100794.56;4866638;29;45312;-87
2021/07/04 07:28:08;;;;;;;;;3.00;3.00;;;;;19.74;69.94;100800.78;4868416;29;45318;-91
2021/07/04 07:30:33;;;;;;;;;4.00;2.00;;;;;19.77;69.59;100800.75;4868369;29;45296;-88
2021/07/04 07:32:59;;;;;;;;;4.67;4.00;;;;;19.79;69.28;100811.38;4866704;29;46227;-86
2021/07/04 07:35:25;;;;;;;;;6.67;4.00;;;;;19.81;68.61;100814.88;4866772;29;45315;-83
2021/07/04 07:37:52;;;;;;;;;2.00;2.00;;;;;19.78;68.26;100823.81;4867647;29;45261;-84
2021/07/04 07:40:18;;;;;;;;;5.00;3.33;;;;;19.78;68.64;100823.81;4867263;29;45237;-88
2021/07/04 07:42:44;;;;;;;;;6.33;4.00;;;;;19.77;68.05;100827.41;4866564;29;45213;-86
2021/07/04 07:45:10;;;;;;;;;3.00;3.00;;;;;19.66;67.95;100805.41;4866355;29;45220;-88
2021/07/04 07:47:36;;;;;;;;;3.00;3.00;;;;;19.73;69.09;100820.38;4866549;29;45224;-84
2021/07/04 07:50:04;;;;;;;;;5.00;3.67;;;;;19.69;68.93;100816.03;4867589;29;45388;-87
2021/07/04 07:52:29;;;;;;;;;3.00;3.00;;;;;19.72;68.73;100823.94;4880968;29;48517;-85
2021/07/04 07:54:55;;;;;;;;;3.00;3.00;;;;;19.71;68.60;100821.31;4866995;29;45438;-90
2021/07/04 07:57:21;;;;;;;;;4.00;3.00;;;;;19.72;68.47;100823.94;4868326;29;45325;-87
2021/07/04 07:59:46;;;;;;;;;4.00;4.00;;;;;19.76;68.50;100822.97;4876237;29;45225;-87
2021/07/04 08:02:12;;;;;;;;;5.00;3.00;;;;;19.77;68.16;100829.19;4875999;29;46229;-85
2021/07/04 08:04:38;;;;;;;;;3.67;3.33;;;;;19.74;67.76;100824.78;4872341;29;45258;-85
2021/07/04 08:07:04;;;;;;;;;3.00;3.00;;;;;19.75;67.32;100839.00;4871355;29;45244;-88
2021/07/04 08:09:30;;;;;;;;;2.67;2.00;;;;;19.67;67.09;100825.84;4869631;29;45378;-92
2021/07/04 08:11:55;;;;;;;;;3.00;3.00;;;;;19.72;67.56;100829.28;4866986;29;45555;-88
2021/07/04 08:14:21;;;;;;;;;1.00;1.00;;;;;19.76;66.62;100825.63;4866394;29;45477;-88
2021/07/04 08:16:47;;;;;;;;;2.67;2.67;;;;;19.85;67.58;100813.91;4867266;29;45381;-90
2021/07/04 08:19:13;;;;;;;;;2.00;2.00;;;;;19.89;67.41;100802.28;4866647;29;45444;-87
2021/07/04 08:21:39;;;;;;;;;2.00;2.00;;;;;19.98;66.65;100786.97;4865908;29;45501;-90
2021/07/04 08:24:05;;;;;;;;;3.00;2.00;;;;;20.00;67.24;100767.38;4866110;29;45276;-88
2021/07/04 08:26:30;;;;;;;;;3.00;1.00;;;;;20.13;66.96;100778.69;4866406;29;45399;-90
2021/07/04 08:28:56;;;;;;;;;3.33;2.00;;;;;20.17;67.25;100789.28;4866631;29;45442;-88
2021/07/04 08:31:25;;;;;;;;;2.00;2.00;;;;;20.05;67.45;100750.38;4866119;29;45264;-87
2021/07/04 08:33:51;;;;;;;;;3.00;2.00;;;;;20.10;67.61;100773.41;4865219;29;45491;-90
2021/07/04 08:36:16;;;;;;;;;2.33;2.33;;;;;19.97;67.45;100746.06;4865366;29;45329;-87
2021/07/04 08:38:42;;;;;;;;;3.67;3.00;;;;;20.00;67.24;100748.69;4866510;29;45438;-89
2021/07/04 08:41:07;;;;;;;;;3.33;3.00;;;;;20.02;67.62;100756.66;4864630;29;47914;-89
2021/07/04 08:43:35;;;;;;;;;3.00;3.00;;;;;20.02;68.38;100767.31;4866072;29;45315;-89
2021/07/04 08:46:04;;;;;;;;;2.67;2.67;;;;;20.13;68.04;100783.13;4865946;29;45280;-88
2021/07/04 08:48:32;;;;;;;;;3.00;2.33;;;;;20.18;69.18;100783.91;4879760;29;45486;-88
2021/07/04 08:50:57;;;;;;;;;4.33;2.67;;;;;20.43;68.61;100787.84;4863757;29;47405;-87
2021/07/04 08:53:23;;;;;;;;;2.67;2.67;;;;;20.77;68.27;100796.84;4865948;29;45271;-88
2021/07/04 08:55:49;;;;;;;;;1.33;1.33;;;;;21.18;67.77;100796.72;4865013;29;45419;-88
2021/07/04 08:58:25;;;;;;;;;1.00;1.00;;;;;21.63;66.54;100791.97;4865762;29;45544;-90
2021/07/04 09:01:11;;;;;;;;;2.00;2.00;;;;;22.00;66.09;100779.34;4866445;29;46163;-90
2021/07/04 09:03:37;;;;;;;;;3.00;1.00;;;;;22.41;65.48;100770.09;4865756;29;45273;-89
2021/07/04 09:06:03;;;;;;;;;2.33;2.33;;;;;23.01;62.97;100794.06;4879705;29;45319;-89
2021/07/04 09:08:29;;;;;;;;;1.00;1.00;;;;;23.36;62.20;100776.78;4868741;29;45149;-87
2021/07/04 09:11:27;;;;;;;;;3.67;0.67;;;;;23.99;60.64;100783.47;4870497;29;48241;-88
2021/07/04 09:13:52;;;;;;;;;2.33;1.00;;;;;24.40;59.72;100780.16;4835102;29;45411;-89
2021/07/04 09:16:24;;;;;;;;;1.00;1.00;;;;;24.81;60.83;100773.09;4840478;29;45244;-89
2021/07/04 09:19:10;;;;;;;;;1.67;1.67;;;;;25.46;60.12;100784.75;4841294;29;45533;-89
2021/07/04 09:21:35;;;;;;;;;1.00;1.00;;;;;25.89;57.08;100776.53;4821352;29;47121;-88
2021/07/04 09:24:01;;;;;;;;;1.00;1.00;;;;;26.68;55.11;100784.50;4833432;29;45468;-89
2021/07/04 09:26:41;;;;;;;;;1.33;1.33;;;;;27.24;53.71;100780.84;4818069;29;45439;-90
2021/07/04 09:29:09;;;;;;;;;2.00;0.67;;;;;27.31;52.96;100775.97;4831989;29;45282;-88
2021/07/04 09:31:35;;;;;;;;;1.67;0.33;;;;;27.32;49.48;100758.84;4828351;29;47336;-89
2021/07/04 09:34:12;;;;;;;;;0.00;0.00;;;;;26.98;52.13;100755.19;4827653;29;45312;-89
2021/07/04 09:36:39;;;;;;;;;0.00;0.00;;;;;26.62;51.84;100757.84;4811194;29;45537;-90
2021/07/04 09:39:19;;;;;;;;;0.33;0.33;;;;;26.20;51.20;100754.47;4827219;29;45399;-89
2021/07/04 09:42:02;;;;;;;;;1.00;1.00;;;;;26.09;53.55;100763.06;4826660;29;46296;-90
2021/07/04 09:44:28;;;;;;;;;3.00;0.33;;;;;25.98;52.63;100760.88;4827590;29;45422;-83
2021/07/04 09:47:14;;;;;;;;;3.33;1.00;;;;;25.71;51.97;100767.50;4825287;29;45291;-86
2021/07/04 09:49:40;;;;;;;;;1.00;1.00;;;;;25.49;49.48;100760.38;4847612;29;45336;-82
2021/07/04 09:52:22;;;;;;;;;0.67;0.67;;;;;25.29;48.84;100761.28;4863921;29;45342;-82
2021/07/04 09:54:54;;;;;;;;;1.33;1.00;;;;;24.98;51.93;100764.34;4860440;29;45363;-84
2021/07/04 09:57:20;;;;;;;;;1.00;1.00;;;;;24.74;51.63;100767.13;4864095;29;45571;-86
2021/07/04 09:59:46;;;;;;;;;3.00;1.00;;;;;24.48;52.93;100768.19;4864269;29;45386;-84
2021/07/04 10:02:15;;;;;;;;;1.00;1.00;;;;;24.22;52.62;100759.34;4863910;29;45620;-86
2021/07/04 10:04:41;;;;;;;;;1.33;1.33;;;;;24.09;54.54;100761.66;4864111;29;45344;-81
2021/07/04 10:07:06;;;;;;;;;1.67;1.67;;;;;23.96;54.33;100758.56;4863773;29;45400;-82
2021/07/04 10:09:32;;;;;;;;;4.00;3.00;;;;;23.76;53.56;100758.38;4863926;29;45476;-83
2021/07/04 10:11:59;;;;;;;;;1.33;1.00;;;;;23.53;53.26;100759.25;4863242;29;45460;-84
2021/07/04 10:14:25;;;;;;;;;1.00;1.00;;;;;23.34;53.30;100757.19;4863671;29;45413;-83
2021/07/04 10:16:51;;;;;;;;;1.00;1.00;;;;;23.20;53.79;100750.53;4863334;29;45715;-82
2021/07/04 10:19:19;;;;;;;;;1.00;0.00;;;;;23.11;54.26;100748.19;4864024;29;45478;-82
2021/07/04 10:21:46;;;;;;;;;0.67;0.67;;;;;23.09;54.62;100744.66;4864974;29;45557;-83
2021/07/04 10:24:12;;;;;;;;;1.00;1.00;;;;;23.10;55.08;100733.00;4869783;29;45345;-83
2021/07/04 10:26:40;;;;;;;;;1.33;1.33;;;;;23.20;54.09;100731.78;4869820;29;45339;-81
2021/07/04 10:29:07;;;;;;;;;0.00;0.00;;;;;23.18;53.86;100732.75;4870090;29;45360;-83
2021/07/04 10:31:34;;;;;;;;;0.33;0.33;;;;;23.20;53.88;100733.56;4869695;29;46234;-82
2021/07/04 10:34:14;;;;;;;;;0.00;0.00;;;;;23.29;54.38;100735.06;4869669;29;45407;-83
2021/07/04 10:36:56;;;;;;;;;1.00;1.00;;;;;23.34;54.66;100733.06;4870157;29;45363;-81
2021/07/04 10:39:22;;;;;;;;;2.00;1.00;;;;;23.47;54.64;100731.72;4869289;29;45440;-85
2021/07/04 10:42:01;;;;;;;;;2.00;0.67;;;;;23.64;54.43;100729.34;4869351;29;45612;-82
2021/07/04 10:44:41;;;;;;;;;2.00;0.00;;;;;23.74;54.27;100728.06;4868314;29;45379;-83
2021/07/04 10:47:11;;;;;;;;;1.00;1.00;;;;;23.90;53.69;100731.00;4868244;29;45334;-83
2021/07/04 10:49:40;;;;;;;;;1.00;0.00;;;;;24.11;54.19;100720.38;4868931;29;45237;-82
2021/07/04 10:52:30;;;;;;;;;2.00;0.33;;;;;24.18;53.03;100716.50;4869360;29;45350;-82
2021/07/04 10:54:57;;;;;;;;;0.00;0.00;;;;;24.13;51.68;100729.25;4868026;29;45356;-85
2021/07/04 10:57:51;;;;;;;;;2.00;2.00;;;;;23.91;52.95;100723.84;4869395;29;45273;-82
2021/07/04 11:00:49;;;;;;;;;1.00;1.00;;;;;23.70;52.67;100730.00;4869853;29;45308;-85
2021/07/04 11:03:33;;;;;;;;;1.67;1.33;;;;;23.59;52.85;100725.03;4829818;29;48199;-82
2021/07/04 11:05:58;;;;;;;;;1.00;1.00;;;;;23.52;53.35;100718.13;4830097;29;45319;-81
2021/07/04 11:08:27;;;;;;;;;1.00;1.00;;;;;23.44;52.81;100715.69;4830233;29;45530;-82
2021/07/04 11:11:01;;;;;;;;;2.00;1.00;;;;;23.33;53.76;100713.41;4830082;29;45525;-81
2021/07/04 11:13:33;;;;;;;;;1.00;1.00;;;;;23.35;53.18;100705.31;4829916;29;46078;-88
2021/07/04 11:16:08;;;;;;;;;2.00;2.00;;;;;23.45;52.64;100703.16;4832510;29;45262;-89
2021/07/04 11:18:48;;;;;;;;;1.00;1.00;;;;;23.52;53.40;100687.75;4831668;29;45370;-88
2021/07/04 11:21:17;;;;;;;;;2.00;1.00;;;;;23.66;54.44;100703.31;4830719;29;45546;-87
2021/07/04 11:23:43;;;;;;;;;1.67;1.67;;;;;23.66;53.15;100681.84;4830155;29;45393;-86
2021/07/04 11:26:08;;;;;;;;;1.00;0.33;;;;;23.87;53.52;100690.88;4814356;29;45400;-85
2021/07/04 11:28:40;;;;;;;;;1.00;1.00;;;;;23.85;52.16;100679.34;4830368;29;45442;-88
2021/07/04 11:31:17;;;;;;;;;0.00;0.00;;;;;23.96;51.07;100691.44;4814870;29;45548;-86
2021/07/04 11:33:50;;;;;;;;;0.67;0.67;;;;;23.96;51.24;100678.91;4812401;29;47645;-87
2021/07/04 11:36:16;;;;;;;;;0.00;0.00;;;;;24.06;50.93;100674.91;4826979;29;45395;-87
2021/07/04 11:38:43;;;;;;;;;1.00;1.00;;;;;24.19;49.89;100674.41;4831413;29;45395;-87
2021/07/04 11:41:14;;;;;;;;;2.00;0.67;;;;;24.28;50.12;100668.69;4866290;29;45489;-88
2021/07/04 11:43:41;;;;;;;;;1.00;0.00;;;;;24.29;49.34;100656.13;4865942;29;46397;-86
2021/07/04 11:46:09;;;;;;;;;1.67;1.00;;;;;24.34;49.46;100659.50;4865963;29;45351;-87
2021/07/04 11:48:44;;;;;;;;;0.00;0.00;;;;;24.43;49.27;100662.75;4865043;29;45330;-87
2021/07/04 11:51:11;;;;;;;;;1.00;0.33;;;;;24.40;49.22;100639.56;4865404;29;45727;-87
2021/07/04 11:53:50;;;;;;;;;1.00;1.00;;;;;24.61;48.86;100659.28;4865878;29;46121;-88
2021/07/04 11:56:15;;;;;;;;;2.00;2.00;;;;;24.62;48.43;100660.16;4866117;29;45511;-88
2021/07/04 11:58:41;;;;;;;;;1.00;1.00;;;;;24.53;49.17;100647.97;4866303;29;45242;-87
2021/07/04 12:01:20;;;;;;;;;2.00;0.67;;;;;24.68;48.98;100661.69;4867676;29;45345;-88
2021/07/04 12:03:51;;;;;;;;;1.00;1.00;;;;;24.71;48.83;100661.53;4868200;29;45494;-92
2021/07/04 12:06:17;;;;;;;;;1.00;1.00;;;;;24.71;48.59;100653.47;4866557;29;45222;-88
2021/07/04 12:09:02;;;;;;;;;1.00;1.00;;;;;24.74;48.71;100650.69;4867171;29;45237;-89
2021/07/04 12:11:50;;;;;;;;;1.00;1.00;;;;;24.70;48.81;100641.88;4870547;29;45226;-89
2021/07/04 12:14:29;;;;;;;;;2.00;0.33;;;;;24.70;49.52;100651.75;4869537;29;46014;-89
2021/07/04 12:16:57;;;;;;;;;4.00;1.00;;;;;24.62;49.70;100669.06;4873341;29;45446;-89
2021/07/04 12:19:31;;;;;;;;;0.00;0.00;;;;;24.47;49.15;100672.44;4878888;29;45316;-89
2021/07/04 12:21:58;;;;;;;;;1.00;0.00;;;;;24.18;49.23;100660.09;4884896;29;45265;-89
2021/07/04 12:24:39;;;;;;;;;1.00;1.00;;;;;23.96;51.41;100653.88;4877785;29;45493;-89
2021/07/04 12:27:05;;;;;;;;;0.00;0.00;;;;;23.85;51.96;100665.03;4875888;29;45529;-89
2021/07/04 12:30:01;;;;;;;;;1.00;1.00;;;;;23.54;52.54;100656.38;4872445;29;44752;-89
2021/07/04 12:32:41;;;;;;;;;0.00;0.00;;;;;23.44;53.47;100656.69;4872729;29;45285;-89
2021/07/04 12:35:09;;;;;;;;;1.00;1.00;;;;;23.37;54.85;100652.50;4871567;29;45531;-89
2021/07/04 12:37:35;;;;;;;;;1.00;1.00;;;;;23.37;54.42;100649.81;4868276;29;45446;-88
2021/07/04 12:40:09;;;;;;;;;2.00;2.00;;;;;23.36;55.61;100648.06;4886450;29;45348;-89
2021/07/04 12:42:35;;;;;;;;;2.00;2.00;;;;;23.23;54.37;100640.47;4868373;29;45324;-89
2021/07/04 12:45:10;;;;;;;;;2.00;1.00;;;;;23.24;54.44;100666.38;4863986;29;47122;-90
2021/07/04 12:47:36;;;;;;;;;1.00;1.00;;;;;23.12;55.01;100640.00;4866760;29;45382;-89
2021/07/04 12:50:05;;;;;;;;;2.00;1.00;;;;;23.11;55.11;100644.50;4880772;29;45295;-89
2021/07/04 12:52:30;;;;;;;;;1.67;1.67;;;;;23.14;54.66;100657.78;4880383;29;45261;-88
2021/07/04 12:54:56;;;;;;;;;0.00;0.00;;;;;23.14;54.44;100655.09;4865664;29;46320;-88
2021/07/04 12:57:36;;;;;;;;;3.33;1.00;;;;;23.09;54.59;100642.81;4865703;29;45335;-89
2021/07/04 13:00:32;;;;;;;;;0.33;0.00;;;;;23.11;54.63;100630.22;4865439;29;45339;-87
2021/07/04 13:02:57;;;;;;;;;2.00;1.00;;;;;23.10;54.29;100632.00;4863235;29;45361;-87
2021/07/04 13:05:37;;;;;;;;;1.00;1.00;;;;;23.13;53.50;100625.66;4864748;29;46636;-87
2021/07/04 13:08:11;;;;;;;;;3.00;0.00;;;;;23.17;55.78;100635.34;4863831;29;46030;-88
2021/07/04 13:10:36;;;;;;;;;1.00;1.00;;;;;23.16;54.71;100620.19;4864662;29;45367;-87
2021/07/04 13:13:11;;;;;;;;;3.00;1.00;;;;;23.25;55.42;100627.88;4865994;29;45461;-88
2021/07/04 13:15:37;;;;;;;;;2.00;1.00;;;;;23.21;55.02;100618.22;4869060;29;45612;-89
2021/07/04 13:18:04;;;;;;;;;0.33;0.33;;;;;23.32;54.81;100614.25;4868468;29;45386;-88
2021/07/04 13:20:30;;;;;;;;;2.00;1.33;;;;;23.39;55.40;100610.41;4868191;29;45299;-89
2021/07/04 13:22:58;;;;;;;;;1.00;1.00;;;;;23.35;55.86;100590.00;4866082;29;45343;-89
2021/07/04 13:25:30;;;;;;;;;1.00;1.00;;;;;23.35;54.30;100590.00;4879565;29;46423;-90
2021/07/04 13:28:15;;;;;;;;;1.00;1.00;;;;;23.37;53.76;100593.50;4866081;29;45450;-89
2021/07/04 13:30:54;;;;;;;;;1.00;1.00;;;;;23.46;53.96;100611.94;4867313;29;45362;-90
2021/07/04 13:33:33;;;;;;;;;3.00;1.00;;;;;23.55;53.55;100608.03;4866596;29;45429;-90
2021/07/04 13:36:13;;;;;;;;;1.00;1.00;;;;;23.54;54.13;100592.84;4863631;29;47303;-90
2021/07/04 13:38:39;;;;;;;;;2.67;0.00;;;;;23.54;55.21;100600.91;4867510;29;45241;-89
2021/07/04 13:41:04;;;;;;;;;0.00;0.00;;;;;23.56;54.21;100590.13;4865140;29;45475;-89
2021/07/04 13:43:30;;;;;;;;;1.00;1.00;;;;;23.59;55.30;100593.56;4865529;29;45385;-89
2021/07/04 13:45:55;;;;;;;;;3.00;1.33;;;;;23.67;54.16;100605.81;4864602;29;45695;-88
2021/07/04 13:48:28;;;;;;;;;1.00;1.00;;;;;23.74;54.27;100611.78;4865049;29;45532;-90
2021/07/04 13:50:59;;;;;;;;;1.33;1.33;;;;;23.64;54.03;100587.13;4865471;29;45313;-91
2021/07/04 13:53:26;;;;;;;;;3.33;0.33;;;;;23.68;54.75;100591.44;4863814;29;45413;-89
2021/07/04 13:55:56;;;;;;;;;2.00;1.00;;;;;23.73;54.60;100593.94;4865382;29;45231;-89
2021/07/04 13:58:23;;;;;;;;;1.33;1.00;;;;;23.68;53.70;100584.28;4863270;29;45424;-89
2021/07/04 14:00:51;;;;;;;;;2.00;1.00;;;;;23.76;55.52;100591.13;4865375;29;45370;-89
2021/07/04 14:03:17;;;;;;;;;0.33;0.33;;;;;23.67;54.28;100568.25;4863969;29;45283;-89
2021/07/04 14:05:42;;;;;;;;;1.00;1.00;;;;;23.77;55.66;100593.75;4879092;29;48325;-91
2021/07/04 14:08:09;;;;;;;;;2.00;0.00;;;;;23.75;55.19;100584.03;4865793;29;45280;-89
2021/07/04 14:10:37;;;;;;;;;1.00;1.00;;;;;23.64;56.71;100582.66;4864365;29;45236;-89
2021/07/04 14:13:04;;;;;;;;;1.67;1.00;;;;;23.55;56.68;100572.28;4865177;29;45486;-88
2021/07/04 14:15:29;;;;;;;;;2.00;0.00;;;;;23.52;55.89;100577.78;4862978;29;48138;-88
2021/07/04 14:17:55;;;;;;;;;1.00;1.00;;;;;23.48;55.75;100575.19;4864206;29;45482;-88
2021/07/04 14:20:20;;;;;;;;;1.00;1.00;;;;;23.42;55.13;100585.25;4864432;29;45340;-89
2021/07/04 14:22:48;;;;;;;;;1.00;1.00;;;;;23.34;56.34;100586.44;4864966;29;45362;-89
2021/07/04 14:25:16;;;;;;;;;2.67;1.00;;;;;23.20;58.14;100584.31;4865385;29;45297;-89
2021/07/04 14:27:42;;;;;;;;;1.00;1.00;;;;;23.24;57.90;100601.13;4865386;29;45347;-89
2021/07/04 14:30:11;;;;;;;;;0.33;0.00;;;;;23.11;57.72;100582.84;4865488;29;45330;-89
2021/07/04 14:32:37;;;;;;;;;0.00;0.00;;;;;23.02;58.15;100570.66;4865289;29;45220;-89
2021/07/04 14:35:05;;;;;;;;;1.00;1.00;;;;;23.08;60.49;100590.09;4864549;29;45558;-89
2021/07/04 14:37:33;;;;;;;;;2.00;0.00;;;;;23.04;59.88;100599.19;4869085;29;45233;-88
2021/07/04 14:39:58;;;;;;;;;0.67;0.67;;;;;22.86;58.30;100581.09;4885292;29;45339;-88
2021/07/04 14:42:25;;;;;;;;;1.00;1.00;;;;;22.79;58.88;100606.34;4869019;29;45166;-88
2021/07/04 14:44:51;;;;;;;;;1.00;1.00;;;;;22.65;58.26;100593.41;4865758;29;45450;-89
2021/07/04 14:47:17;;;;;;;;;1.00;1.00;;;;;22.59;59.21;100594.47;4879025;29;45299;-88
2021/07/04 14:49:43;;;;;;;;;4.33;1.00;;;;;22.50;58.33;100589.47;4865930;29;45200;-88
2021/07/04 14:52:11;;;;;;;;;0.00;0.00;;;;;22.48;58.93;100619.00;4866388;29;45510;-88
2021/07/04 14:54:49;;;;;;;;;3.67;1.33;;;;;22.37;59.48;100602.41;4864252;29;47403;-88
2021/07/04 14:57:15;;;;;;;;;0.00;0.00;;;;;22.33;60.30;100598.97;4864659;29;45423;-87
2021/07/04 14:59:41;;;;;;;;;1.67;1.00;;;;;22.36;60.74;100606.03;4863571;29;45632;-89
2021/07/04 15:02:06;;;;;;;;;1.00;1.00;;;;;22.18;61.27;100578.94;4863302;29;45251;-88
2021/07/04 15:04:32;;;;;;;;;1.00;1.00;;;;;22.16;61.27;100584.34;4865369;29;46020;-89
2021/07/04 15:06:58;;;;;;;;;0.00;0.00;;;;;22.12;60.03;100587.19;4865029;29;45243;-90
2021/07/04 15:09:24;;;;;;;;;1.00;1.00;;;;;22.09;60.50;100596.19;4879959;29;45262;-87
2021/07/04 15:11:51;;;;;;;;;2.33;0.00;;;;;22.10;59.98;100605.97;4866932;29;45425;-87
2021/07/04 15:14:16;;;;;;;;;1.00;1.00;;;;;22.06;60.60;100594.47;4865673;29;47220;-87
2021/07/04 15:16:42;;;;;;;;;1.00;1.00;;;;;22.07;60.79;100606.94;4868173;29;45323;-88
2021/07/04 15:19:08;;;;;;;;;0.67;0.67;;;;;21.93;60.89;100586.00;4869279;29;45333;-88
2021/07/04 15:21:34;;;;;;;;;2.00;1.00;;;;;22.05;60.39;100594.53;4869091;29;45483;-88
2021/07/04 15:23:59;;;;;;;;;0.00;0.00;;;;;22.00;60.06;100600.03;4869205;29;45371;-88
2021/07/04 15:26:25;;;;;;;;;1.00;0.00;;;;;21.90;59.56;100574.50;4881939;29;45696;-90
2021/07/04 15:28:52;;;;;;;;;0.67;0.67;;;;;22.01;59.37;100609.81;4865424;29;45317;-88
2021/07/04 15:31:18;;;;;;;;;0.00;0.00;;;;;21.90;60.16;100590.56;4866987;29;45422;-89
2021/07/04 15:33:43;;;;;;;;;1.00;1.00;;;;;21.86;59.92;100593.34;4866309;29;46356;-88
2021/07/04 15:36:08;;;;;;;;;2.67;1.00;;;;;21.93;59.61;100614.56;4866067;29;45210;-88
2021/07/04 15:38:35;;;;;;;;;2.67;1.00;;;;;21.85;60.44;100607.63;4866759;29;45217;-89
2021/07/04 15:41:00;;;;;;;;;2.00;1.00;;;;;21.83;60.80;100601.44;4865691;29;45273;-89
2021/07/04 15:43:26;;;;;;;;;1.00;1.00;;;;;21.83;60.89;100596.09;4866818;29;45222;-88
2021/07/04 15:45:51;;;;;;;;;1.33;1.00;;;;;21.81;62.14;100591.69;4867010;29;45446;-90
2021/07/04 15:48:17;;;;;;;;;2.00;1.67;;;;;21.92;61.78;100618.13;4866868;29;45422;-88
2021/07/04 15:50:42;;;;;;;;;1.00;1.00;;;;;21.88;61.94;100613.81;4889024;29;45393;-88
2021/07/04 15:53:08;;;;;;;;;1.00;1.00;;;;;21.84;62.19;100602.34;4876022;29;46493;-88
2021/07/04 15:55:35;;;;;;;;;1.00;1.00;;;;;21.82;62.27;100614.84;4878753;29;45287;-88
2021/07/04 15:58:03;;;;;;;;;1.33;1.00;;;;;21.81;62.46;100595.25;4881791;29;45330;-89
2021/07/04 16:00:28;;;;;;;;;1.33;1.33;;;;;21.82;63.49;100593.44;4877200;29;45215;-88
2021/07/04 16:02:54;;;;;;;;;2.33;0.67;;;;;21.85;63.61;100604.06;4866090;29;46327;-89
2021/07/04 16:05:21;;;;;;;;;2.33;1.00;;;;;21.75;63.50;100587.41;4865786;29;45348;-88
2021/07/04 16:07:46;;;;;;;;;1.00;1.00;;;;;21.83;64.15;100593.44;4866110;29;45430;-88
2021/07/04 16:10:14;;;;;;;;;1.00;1.00;;;;;21.79;64.09;100578.38;4864508;29;45360;-89
2021/07/04 16:12:39;;;;;;;;;1.00;1.00;;;;;21.88;63.79;100604.00;4865963;29;45465;-88
2021/07/04 16:15:06;;;;;;;;;3.00;2.00;;;;;21.84;64.16;100586.28;4864511;29;45510;-88
2021/07/04 16:17:32;;;;;;;;;2.00;2.00;;;;;21.84;63.71;100589.84;4865823;29;45304;-88
2021/07/04 16:19:58;;;;;;;;;1.33;1.00;;;;;21.92;64.06;100597.59;4865711;29;45233;-89
2021/07/04 16:22:23;;;;;;;;;1.00;1.00;;;;;21.93;63.56;100606.53;4864040;29;47061;-88
2021/07/04 16:24:49;;;;;;;;;2.33;1.00;;;;;21.89;63.94;100595.06;4864319;29;45278;-89
2021/07/04 16:27:16;;;;;;;;;3.00;1.00;;;;;21.84;62.60;100587.16;4866222;29;45449;-89
2021/07/04 16:29:42;;;;;;;;;1.67;1.00;;;;;21.89;62.47;100588.81;4866221;29;45426;-88
2021/07/04 16:32:08;;;;;;;;;0.67;0.33;;;;;21.93;62.89;100595.81;4865819;29;46464;-88
2021/07/04 16:34:34;;;;;;;;;3.67;2.00;;;;;22.01;62.49;100607.16;4880181;29;45372;-88
2021/07/04 16:36:59;;;;;;;;;0.00;0.00;;;;;21.93;62.40;100590.47;4864733;29;45330;-89
2021/07/04 16:39:26;;;;;;;;;1.33;1.33;;;;;22.06;62.10;100609.69;4865243;29;45418;-89
2021/07/04 16:41:51;;;;;;;;;2.00;2.00;;;;;21.97;63.48;100594.78;4880906;29;47087;-88
2021/07/04 16:44:17;;;;;;;;;4.00;1.00;;;;;22.11;63.62;100621.09;4864871;29;45508;-88
2021/07/04 16:46:43;;;;;;;;;0.00;0.00;;;;;22.07;62.03;100604.25;4864450;29;45542;-89
2021/07/04 16:49:09;;;;;;;;;0.00;0.00;;;;;22.09;62.01;100602.41;4864358;29;45519;-88
2021/07/04 16:51:35;;;;;;;;;0.00;0.00;;;;;22.01;61.43;100587.53;4863935;29;48215;-88
2021/07/04 16:54:01;;;;;;;;;2.00;0.00;;;;;22.10;61.49;100592.59;4865472;29;45721;-88
2021/07/04 16:56:27;;;;;;;;;2.67;2.00;;;;;22.08;62.06;100584.59;4863946;29;45383;-88
2021/07/04 16:58:53;;;;;;;;;1.00;1.00;;;;;22.13;61.90;100596.94;4880190;29;45410;-88
2021/07/04 17:01:21;;;;;;;;;1.33;0.67;;;;;22.06;60.76;100602.50;4865321;29;46415;-88
2021/07/04 17:03:47;;;;;;;;;1.00;1.00;;;;;22.08;61.29;100611.34;4865336;29;45328;-88
2021/07/04 17:06:13;;;;;;;;;0.00;0.00;;;;;22.09;60.99;100621.16;4865241;29;45684;-88
2021/07/04 17:08:39;;;;;;;;;1.00;1.00;;;;;22.01;61.66;100617.84;4879715;29;45196;-88
2021/07/04 17:11:04;;;;;;;;;2.00;1.00;;;;;22.12;61.12;100635.34;4864937;29;45270;-88
2021/07/04 17:13:30;;;;;;;;;0.00;0.00;;;;;22.08;60.69;100632.75;4865501;29;45279;-89
2021/07/04 17:15:55;;;;;;;;;2.00;0.00;;;;;22.05;59.79;100648.94;4880108;29;45534;-88
2021/07/04 17:18:21;;;;;;;;;0.00;0.00;;;;;21.92;60.39;100632.41;4865755;29;45145;-88
2021/07/04 17:20:46;;;;;;;;;0.00;0.00;;;;;21.87;60.39;100634.38;4879957;29;47952;-88
2021/07/04 17:23:12;;;;;;;;;1.00;1.00;;;;;21.94;59.85;100664.44;4866508;29;45384;-89
2021/07/04 17:25:40;;;;;;;;;2.00;1.00;;;;;21.81;61.29;100655.91;4880306;29;45487;-88
2021/07/04 17:28:06;;;;;;;;;1.33;1.00;;;;;21.82;60.43;100677.28;4866047;29;45365;-89
2021/07/04 17:30:33;;;;;;;;;0.00;0.00;;;;;21.71;59.83;100660.66;4863818;29;46094;-89
2021/07/04 17:32:59;;;;;;;;;1.00;1.00;;;;;21.74;60.29;100671.28;4863360;29;45233;-89
2021/07/04 17:35:25;;;;;;;;;0.67;0.33;;;;;21.68;60.75;100671.47;4864863;29;45361;-89
2021/07/04 17:37:53;;;;;;;;;1.00;1.00;;;;;21.67;59.94;100670.59;4867459;29;45221;-89
2021/07/04 17:40:20;;;;;;;;;1.67;1.67;;;;;21.59;61.09;100673.50;4883841;29;46220;-88
2021/07/04 17:42:46;;;;;;;;;2.00;1.00;;;;;21.66;60.83;100684.88;4865269;29;45412;-88
2021/07/04 17:45:13;;;;;;;;;1.00;1.00;;;;;21.59;60.58;100694.91;4865191;29;45346;-88
2021/07/04 17:47:38;;;;;;;;;1.00;1.00;;;;;21.54;60.63;100686.13;4865688;29;45213;-88
2021/07/04 17:50:06;;;;;;;;;1.00;1.00;;;;;21.60;60.19;100698.44;4865067;29;46270;-88
2021/07/04 17:52:36;;;;;;;;;2.00;1.00;;;;;21.43;60.14;100674.88;4865955;29;45410;-88
2021/07/04 17:55:06;;;;;;;;;3.00;2.00;;;;;21.49;61.10;100693.41;4879544;29;45204;-88
2021/07/04 17:57:31;;;;;;;;;0.00;0.00;;;;;21.42;61.67;100690.03;4864556;29;45493;-88
2021/07/04 17:59:57;;;;;;;;;0.33;0.33;;;;;21.44;61.08;100693.53;4864189;29;48342;-88
2021/07/04 18:02:22;;;;;;;;;0.33;0.33;;;;;21.39;60.48;100691.00;4864250;29;45430;-89
2021/07/04 18:04:48;;;;;;;;;1.00;1.00;;;;;21.29;60.95;100681.50;4865721;29;45350;-88
2021/07/04 18:07:14;;;;;;;;;1.00;1.00;;;;;21.36;60.55;100701.75;4864974;29;45419;-88
2021/07/04 18:09:39;;;;;;;;;1.00;1.00;;;;;21.38;61.17;100718.63;4864806;29;46450;-88
2021/07/04 18:12:05;;;;;;;;;1.67;1.00;;;;;21.24;60.98;100702.13;4864722;29;45418;-88
2021/07/04 18:14:31;;;;;;;;;5.00;1.00;;;;;21.17;60.96;100709.44;4879707;29;45398;-89
2021/07/04 18:16:56;;;;;;;;;1.00;1.00;;;;;21.13;61.10;100700.63;4867286;29;45225;-89
2021/07/04 18:19:22;;;;;;;;;2.00;2.00;;;;;21.16;61.07;100721.94;4863430;29;47372;-88
2021/07/04 18:21:49;;;;;;;;;1.00;1.00;;;;;21.08;61.15;100705.22;4863315;29;45282;-88
2021/07/04 18:24:17;;;;;;;;;1.67;1.67;;;;;21.19;61.75;100728.13;4864598;29;45233;-88
2021/07/04 18:26:43;;;;;;;;;3.33;2.00;;;;;21.16;61.60;100724.59;4863676;29;45370;-89
2021/07/04 18:29:09;;;;;;;;;4.00;3.33;;;;;21.05;61.71;100721.31;4879273;29;47242;-88
2021/07/04 18:31:34;;;;;;;;;4.00;3.00;;;;;21.05;61.65;100732.91;4865538;29;45348;-88
2021/07/04 18:34:01;;;;;;;;;3.33;2.00;;;;;20.92;61.59;100710.94;4872366;29;45366;-88
2021/07/04 18:36:30;;;;;;;;;3.67;3.00;;;;;20.82;61.20;100712.09;4874697;29;45255;-88
2021/07/04 18:38:56;;;;;;;;;4.33;3.00;;;;;20.91;61.69;100748.38;4882547;29;47748;-87
2021/07/04 18:41:21;;;;;;;;;3.00;2.33;;;;;20.83;61.38;100743.25;4889512;29;44872;-89